Time;durP1;ratioP1;P1;durP2;ratioP2;P2;SDS_P1;SDS_P2;PMS_P1;PMS_P2;Temp;Humidity;BMP_temperature;BMP_pressure;BME280_temperature;BME280_humidity;BME280_pressure;Samples;Min_cycle;Max_cycle;Signal;HPM_P1;HPM_P2
2023/09/15 00:00:37;;;;;;;2.90;2.60;;;;;;;22.55;82.83;101060.06;4861476;29;20065;-71
2023/09/15 00:03:05;;;;;;;3.17;2.53;;;;;;;22.48;82.87;101065.38;4877582;29;20527;-71
2023/09/15 00:05:37;;;;;;;4.88;2.72;;;;;;;22.52;83.04;101060.78;4877579;29;20366;-71
2023/09/15 00:08:06;;;;;;;3.38;2.53;;;;;;;22.54;82.21;101063.22;4878105;29;20060;-70
2023/09/15 00:10:38;;;;;;;2.95;2.67;;;;;;;22.52;83.07;101060.78;4877671;29;20404;-70
2023/09/15 00:13:06;;;;;;;2.90;2.70;;;;;;;22.39;83.20;101067.50;4876752;29;20064;-70
2023/09/15 00:15:35;;;;;;;2.88;2.50;;;;;;;22.37;82.13;101059.47;4877140;29;20064;-70
2023/09/15 00:18:03;;;;;;;2.50;2.30;;;;;;;22.48;82.62;101065.38;4877618;29;20053;-71
2023/09/15 00:20:32;;;;;;;2.53;2.33;;;;;;;22.37;82.29;101061.44;4877454;29;20057;-71
2023/09/15 00:23:00;;;;;;;3.28;2.60;;;;;;;22.42;82.57;101058.44;4878392;29;20056;-70
2023/09/15 00:25:30;;;;;;;2.85;2.60;;;;;;;22.64;80.98;101071.09;4881814;29;20056;-71
2023/09/15 00:28:00;;;;;;;3.08;2.38;;;;;;;22.52;81.24;101065.53;4878107;29;20061;-70
2023/09/15 00:30:28;;;;;;;2.45;2.20;;;;;;;22.51;81.01;101067.50;4877214;29;20061;-70
2023/09/15 00:32:57;;;;;;;2.10;2.00;;;;;;;22.53;80.84;101067.97;4877514;29;20053;-70
2023/09/15 00:35:28;;;;;;;3.45;1.88;;;;;;;22.43;80.88;101071.19;4877389;29;20061;-71
2023/09/15 00:37:56;;;;;;;2.50;2.30;;;;;;;22.44;81.64;101075.63;4877328;29;20523;-70
2023/09/15 00:40:24;;;;;;;2.50;2.10;;;;;;;22.42;81.24;101075.97;4877346;29;20404;-70
2023/09/15 00:42:53;;;;;;;2.13;1.92;;;;;;;22.50;81.18;101077.03;4864362;29;20500;-71
2023/09/15 00:45:22;;;;;;;1.70;1.60;;;;;;;22.47;81.65;101077.72;4881431;29;20052;-71
2023/09/15 00:47:58;;;;;;;2.35;2.15;;;;;;;22.42;81.61;101072.38;4880537;29;20061;-70
2023/09/15 00:50:31;;;;;;;2.47;2.25;;;;;;;22.55;81.43;101074.00;4879801;29;20400;-71
2023/09/15 00:53:09;;;;;;;3.42;2.08;;;;;;;22.45;81.38;101073.66;4863870;29;20052;-71
2023/09/15 00:55:38;;;;;;;2.05;1.90;;;;;;;22.42;81.88;101067.63;4881090;29;20041;-71
2023/09/15 00:58:11;;;;;;;2.08;1.88;;;;;;;22.31;82.12;101074.00;4880122;29;20045;-71
2023/09/15 01:00:42;;;;;;;2.42;2.10;;;;;;;22.40;80.95;101069.13;4881251;29;20051;-71
2023/09/15 01:03:13;;;;;;;3.00;2.30;;;;;;;22.30;82.21;101064.84;4880641;29;20061;-70
2023/09/15 01:05:45;;;;;;;3.58;2.35;;;;;;;22.43;81.04;101062.84;4863803;29;20404;-70
2023/09/15 01:08:13;;;;;;;2.75;2.30;;;;;;;22.34;80.76;101067.72;4862268;29;20077;-70
2023/09/15 01:10:41;;;;;;;2.47;2.28;;;;;;;22.41;81.25;101059.59;4862207;29;20060;-71
2023/09/15 01:13:12;;;;;;;2.35;2.15;;;;;;;22.47;81.05;101062.94;4861796;29;20061;-70
2023/09/15 01:16:04;;;;;;;2.10;1.90;;;;;;;22.49;80.76;101064.22;4872394;29;20045;-70
2023/09/15 01:18:52;;;;;;;2.88;2.17;;;;;;;22.42;82.31;101053.66;4880734;29;20053;-70
2023/09/15 01:21:51;;;;;;;3.30;2.10;;;;;;;22.42;81.00;101066.78;4879527;29;20068;-71
2023/09/15 01:24:22;;;;;;;5.00;2.20;;;;;;;22.51;82.35;101056.34;4863135;29;20412;-71
2023/09/15 01:27:08;;;;;;;3.30;2.35;;;;;;;22.59;81.05;101056.59;4880637;29;20053;-70
2023/09/15 01:29:53;;;;;;;2.40;2.08;;;;;;;22.59;81.21;101051.00;4879537;29;20195;-70
2023/09/15 01:32:22;;;;;;;2.95;2.60;;;;;;;22.53;81.49;101054.03;4879936;29;20049;-70
2023/09/15 01:34:53;;;;;;;3.15;2.40;;;;;;;22.48;82.52;101054.25;4880335;29;20087;-71
2023/09/15 01:37:21;;;;;;;2.75;2.45;;;;;;;22.41;83.21;101049.25;4862905;29;20049;-71
2023/09/15 01:39:52;;;;;;;5.20;2.45;;;;;;;22.40;82.21;101053.19;4879656;29;20064;-70
2023/09/15 01:42:20;;;;;;;4.00;2.45;;;;;;;22.42;82.29;101050.06;4879331;29;20060;-70
2023/09/15 01:44:48;;;;;;;3.72;2.30;;;;;;;22.47;82.31;101052.63;4879153;29;20057;-71
2023/09/15 01:47:22;;;;;;;2.20;2.00;;;;;;;22.56;81.86;101055.31;4880247;29;20492;-71
2023/09/15 01:49:52;;;;;;;3.10;2.42;;;;;;;22.45;81.86;101046.59;4879750;29;20053;-71
2023/09/15 01:52:21;;;;;;;2.40;2.20;;;;;;;22.36;82.22;101051.47;4879645;29;20504;-71
2023/09/15 01:54:51;;;;;;;2.42;2.15;;;;;;;22.50;81.08;101054.72;4879044;29;20057;-71
2023/09/15 01:57:19;;;;;;;3.65;2.25;;;;;;;22.57;81.54;101054.13;4879680;29;20064;-71
2023/09/15 01:59:47;;;;;;;2.58;2.05;;;;;;;22.57;80.46;101044.97;4862871;29;20412;-71
2023/09/15 02:02:15;;;;;;;2.75;2.45;;;;;;;22.64;82.26;101050.78;4878965;29;20045;-70
2023/09/15 02:04:43;;;;;;;2.97;2.17;;;;;;;22.69;81.24;101051.31;4880078;29;20048;-70
2023/09/15 02:07:12;;;;;;;3.70;2.35;;;;;;;22.78;80.18;101067.13;4862712;29;20068;-70
2023/09/15 02:09:44;;;;;;;2.80;2.20;;;;;;;22.88;80.12;101060.25;4879104;29;20061;-70
2023/09/15 02:12:12;;;;;;;2.17;1.98;;;;;;;22.92;80.64;101061.16;4879334;29;20057;-71
2023/09/15 02:14:40;;;;;;;3.35;2.20;;;;;;;22.86;81.70;101057.81;4863188;29;20053;-71
2023/09/15 02:17:13;;;;;;;2.97;2.47;;;;;;;22.81;83.10;101056.06;4861897;29;20575;-71
2023/09/15 02:19:44;;;;;;;2.35;2.15;;;;;;;22.77;83.86;101049.56;4879895;29;20053;-70
2023/09/15 02:22:13;;;;;;;2.45;2.25;;;;;;;22.57;85.87;101047.75;4878950;29;20056;-71
2023/09/15 02:24:44;;;;;;;4.38;3.20;;;;;;;22.40;86.83;101046.81;4879065;29;20068;-70
2023/09/15 02:27:12;;;;;;;4.32;3.05;;;;;;;22.36;86.28;101045.88;4879132;29;20045;-71
2023/09/15 02:29:40;;;;;;;2.90;2.70;;;;;;;22.35;86.48;101053.47;4878377;29;20531;-70
2023/09/15 02:32:09;;;;;;;4.22;3.22;;;;;;;22.34;85.50;101051.81;4876812;29;20049;-70
2023/09/15 02:34:36;;;;;;;3.60;3.25;;;;;;;22.32;86.63;101039.38;4878682;29;20060;-70
2023/09/15 02:37:04;;;;;;;3.28;2.97;;;;;;;22.31;86.58;101034.97;4878283;29;20069;-70
2023/09/15 02:39:34;;;;;;;5.72;3.05;;;;;;;22.24;86.30;101038.34;4879115;29;20429;-70
2023/09/15 02:42:03;;;;;;;3.50;3.20;;;;;;;22.16;87.57;101034.53;4879604;29;20398;-70
2023/09/15 02:44:32;;;;;;;3.45;3.10;;;;;;;22.14;86.96;101029.28;4878809;29;20064;-70
2023/09/15 02:47:00;;;;;;;3.30;3.00;;;;;;;22.13;87.28;101027.66;4876625;29;20060;-70
2023/09/15 02:49:28;;;;;;;3.65;2.78;;;;;;;22.11;85.69;101024.44;4862462;29;20060;-70
2023/09/15 02:51:57;;;;;;;3.20;2.90;;;;;;;22.09;84.85;101020.38;4878940;29;20060;-70
2023/09/15 02:54:25;;;;;;;2.95;2.30;;;;;;;22.08;84.16;101024.28;4877314;29;20378;-70
2023/09/15 02:56:53;;;;;;;2.80;2.50;;;;;;;22.23;83.77;101026.38;4877533;29;20053;-71
2023/09/15 02:59:21;;;;;;;2.60;2.08;;;;;;;22.06;82.95;101021.03;4861888;29;20067;-70
2023/09/15 03:01:50;;;;;;;2.75;2.30;;;;;;;22.20;82.04;101026.28;4862371;29;20060;-71
2023/09/15 03:04:21;;;;;;;2.28;1.98;;;;;;;22.24;81.70;101010.47;4861293;29;20053;-70
2023/09/15 03:06:49;;;;;;;2.30;2.10;;;;;;;22.27;81.59;101006.97;4846397;29;20056;-70
2023/09/15 03:09:17;;;;;;;3.30;2.30;;;;;;;22.28;81.58;101005.81;4877359;29;20068;-70
2023/09/15 03:11:46;;;;;;;2.42;1.90;;;;;;;22.09;81.01;100998.06;4877487;29;20057;-70
2023/09/15 03:14:16;;;;;;;2.30;2.10;;;;;;;22.18;83.06;100993.16;4861713;29;20044;-70
2023/09/15 03:16:44;;;;;;;2.35;2.15;;;;;;;22.12;81.68;100992.59;4878670;29;20053;-70
2023/09/15 03:19:12;;;;;;;2.10;1.90;;;;;;;22.11;79.98;100996.56;4877868;29;20092;-70
2023/09/15 03:21:41;;;;;;;2.40;2.13;;;;;;;22.01;80.73;100991.44;4878260;29;20053;-70
2023/09/15 03:24:09;;;;;;;2.00;1.85;;;;;;;22.00;80.86;100995.41;4876754;29;20049;-70
2023/09/15 03:26:40;;;;;;;1.70;1.60;;;;;;;21.93;80.54;100986.78;4877678;29;20052;-71
2023/09/15 03:29:08;;;;;;;4.45;2.13;;;;;;;22.06;79.53;100988.44;4861976;29;20056;-70
2023/09/15 03:31:36;;;;;;;2.30;2.10;;;;;;;22.23;79.21;100998.50;4861203;29;20064;-70
2023/09/15 03:34:10;;;;;;;2.67;2.00;;;;;;;22.18;80.05;100986.81;4878558;29;20056;-70
2023/09/15 03:36:38;;;;;;;2.70;2.00;;;;;;;22.18;78.63;100984.81;4877476;29;20057;-70
2023/09/15 03:39:06;;;;;;;2.78;2.25;;;;;;;21.98;79.40;100987.38;4861446;29;20056;-70
2023/09/15 03:41:34;;;;;;;2.03;1.88;;;;;;;22.04;79.10;100985.16;4876836;29;20064;-70
2023/09/15 03:44:04;;;;;;;2.75;2.00;;;;;;;22.05;79.23;100980.41;4861002;29;20056;-70
2023/09/15 03:46:32;;;;;;;2.20;2.00;;;;;;;22.04;79.28;100976.00;4874882;29;20065;-70
2023/09/15 03:49:01;;;;;;;2.13;2.03;;;;;;;22.14;79.64;100979.13;4877835;29;20064;-70
2023/09/15 03:51:29;;;;;;;2.00;1.83;;;;;;;22.01;78.04;100975.53;4877097;29;20390;-70
2023/09/15 03:53:57;;;;;;;1.88;1.75;;;;;;;21.98;79.06;100979.03;4878348;29;20045;-71
2023/09/15 03:56:25;;;;;;;2.80;2.20;;;;;;;21.91;80.00;100981.59;4877904;29;20073;-71
2023/09/15 03:58:55;;;;;;;2.60;2.40;;;;;;;21.90;79.56;100979.97;4877076;29;20057;-70
2023/09/15 04:01:25;;;;;;;2.92;2.47;;;;;;;21.91;80.40;100977.97;4861646;29;20049;-70
2023/09/15 04:03:53;;;;;;;3.88;2.50;;;;;;;21.95;79.99;100987.28;4861054;29;20057;-70
2023/09/15 04:06:21;;;;;;;2.35;2.15;;;;;;;21.79;80.20;100989.94;4877494;29;20060;-70
2023/09/15 04:08:50;;;;;;;2.78;2.55;;;;;;;21.95;80.27;100988.06;4877879;29;20056;-71
2023/09/15 04:11:17;;;;;;;2.53;2.33;;;;;;;21.91;80.44;100989.94;4878214;29;20045;-71
2023/09/15 04:13:45;;;;;;;3.10;2.22;;;;;;;21.66;81.22;100989.91;4876350;29;20064;-71
2023/09/15 04:16:13;;;;;;;2.40;2.08;;;;;;;21.80;81.75;100988.78;4877008;29;20071;-70
2023/09/15 04:18:41;;;;;;;2.85;2.45;;;;;;;21.70;82.05;100996.41;4881173;29;20045;-71
2023/09/15 04:21:10;;;;;;;3.15;2.50;;;;;;;21.74;81.89;100989.00;4879974;29;20064;-71
2023/09/15 04:23:38;;;;;;;2.85;2.60;;;;;;;21.69;82.88;100985.59;4864834;29;20053;-71
2023/09/15 04:26:06;;;;;;;5.25;2.67;;;;;;;21.64;84.04;100989.41;4879604;29;20053;-71
2023/09/15 04:28:38;;;;;;;2.72;2.53;;;;;;;21.71;84.84;100978.53;4863195;29;20049;-83
2023/09/15 04:31:07;;;;;;;4.85;2.90;;;;;;;22.20;82.99;100978.88;4865499;29;20369;-85
2023/09/15 04:33:36;;;;;;;3.38;2.53;;;;;;;22.47;81.89;100977.31;4834851;29;20049;-85
2023/09/15 04:36:04;;;;;;;3.30;2.90;;;;;;;22.62;80.54;100980.59;4834840;29;20049;-84
2023/09/15 04:38:32;;;;;;;4.03;3.22;;;;;;;22.75;80.14;100984.97;4834850;29;20052;-85
2023/09/15 04:41:01;;;;;;;3.38;3.08;;;;;;;22.89;79.54;100978.16;4849918;29;20049;-85
2023/09/15 04:43:30;;;;;;;3.72;3.42;;;;;;;22.80;80.30;100976.34;4834213;29;20056;-86
2023/09/15 04:45:58;;;;;;;3.40;3.10;;;;;;;22.75;80.78;100984.97;4849774;29;20045;-85
2023/09/15 04:48:26;;;;;;;4.25;2.90;;;;;;;22.79;80.45;100983.06;4834792;29;20053;-85
2023/09/15 04:50:55;;;;;;;3.58;3.10;;;;;;;22.84;80.40;100984.81;4834147;29;20103;-86
2023/09/15 04:53:23;;;;;;;3.33;2.80;;;;;;;23.00;80.16;100996.03;4849207;29;20049;-85
2023/09/15 04:55:52;;;;;;;4.43;3.35;;;;;;;22.79;81.42;100990.63;4833729;29;20488;-85
2023/09/15 04:58:20;;;;;;;3.65;3.20;;;;;;;22.95;80.94;100996.28;4849747;29;20492;-85
2023/09/15 05:00:48;;;;;;;4.72;3.17;;;;;;;23.00;80.51;101007.19;4834646;29;20053;-84
2023/09/15 05:03:17;;;;;;;5.57;3.97;;;;;;;23.11;80.61;101001.09;4834360;29;20053;-82
2023/09/15 05:05:50;;;;;;;6.45;3.97;;;;;;;23.17;80.36;101020.00;4849060;29;20072;-82
2023/09/15 05:08:20;;;;;;;5.68;4.18;;;;;;;23.07;81.17;101012.16;4834475;29;20268;-82
2023/09/15 05:10:49;;;;;;;4.97;4.22;;;;;;;23.15;81.29;101025.16;4849427;29;20053;-83
2023/09/15 05:13:18;;;;;;;6.22;4.50;;;;;;;23.20;80.87;101021.28;4849320;29;20056;-83
2023/09/15 05:15:46;;;;;;;5.05;3.95;;;;;;;23.38;80.42;101026.56;4849270;29;20049;-83
2023/09/15 05:18:14;;;;;;;4.68;4.00;;;;;;;23.24;80.70;101027.78;4851371;29;20053;-83
2023/09/15 05:20:42;;;;;;;7.05;4.60;;;;;;;23.27;80.98;101046.59;4849067;29;20057;-84
2023/09/15 05:23:13;;;;;;;5.28;4.20;;;;;;;23.13;81.49;101037.81;4848438;29;20048;-84
2023/09/15 05:25:42;;;;;;;4.47;3.78;;;;;;;23.16;80.92;101045.50;4849317;29;20053;-83
2023/09/15 05:28:10;;;;;;;4.70;4.05;;;;;;;23.04;82.00;101041.59;4832814;29;20045;-84
2023/09/15 05:30:39;;;;;;;5.55;4.05;;;;;;;23.17;81.50;101049.91;4848832;29;20067;-84
2023/09/15 05:33:08;;;;;;;5.50;4.22;;;;;;;23.13;81.92;101049.81;4864370;29;20055;-84
2023/09/15 05:35:37;;;;;;;6.38;4.25;;;;;;;23.25;81.49;101059.31;4848955;29;20057;-84
2023/09/15 05:38:05;;;;;;;6.80;4.85;;;;;;;23.26;81.15;101058.94;4833813;29;20505;-84
2023/09/15 05:40:34;;;;;;;6.70;4.30;;;;;;;23.26;81.50;101064.50;4834409;29;20064;-84
2023/09/15 05:43:05;;;;;;;4.68;3.70;;;;;;;23.21;81.98;101056.38;4848787;29;20049;-84
2023/09/15 05:45:33;;;;;;;7.13;4.28;;;;;;;23.37;82.02;101070.44;4848921;29;20049;-83
2023/09/15 05:48:01;;;;;;;5.20;4.22;;;;;;;23.27;81.73;101066.13;4833082;29;20409;-84
2023/09/15 05:50:29;;;;;;;5.65;4.50;;;;;;;23.05;83.12;101075.88;4848033;29;20052;-84
2023/09/15 05:52:58;;;;;;;5.40;4.40;;;;;;;23.04;83.61;101077.06;4848121;29;20535;-84
2023/09/15 05:55:26;;;;;;;7.22;4.30;;;;;;;23.06;83.62;101071.91;4833542;29;20057;-84
2023/09/15 05:57:55;;;;;;;5.45;4.50;;;;;;;23.13;83.44;101072.16;4833190;29;20484;-84
2023/09/15 06:00:23;;;;;;;6.90;4.68;;;;;;;23.03;83.75;101079.00;4848403;29;20053;-83
2023/09/15 06:02:52;;;;;;;5.43;4.50;;;;;;;23.07;84.91;101085.53;4847485;29;20492;-84
2023/09/15 06:05:24;;;;;;;5.57;4.53;;;;;;;23.05;85.47;101087.88;4848459;29;20053;-84
2023/09/15 06:07:54;;;;;;;6.10;4.10;;;;;;;22.92;84.68;101083.50;4848148;29;20401;-84
2023/09/15 06:10:23;;;;;;;4.97;4.07;;;;;;;23.09;84.81;101079.59;4847883;29;20401;-84
2023/09/15 06:12:52;;;;;;;8.57;4.25;;;;;;;22.87;86.62;101073.38;4848427;29;20061;-84
2023/09/15 06:15:21;;;;;;;5.03;4.30;;;;;;;22.98;86.87;101068.13;4848093;29;20071;-84
2023/09/15 06:17:50;;;;;;;6.55;4.70;;;;;;;23.07;86.96;101079.16;4848373;29;20057;-84
2023/09/15 06:20:19;;;;;;;8.60;4.60;;;;;;;23.05;85.98;101076.72;4863899;29;20065;-84
2023/09/15 06:22:48;;;;;;;5.32;4.70;;;;;;;23.18;85.42;101079.44;4831967;29;20049;-84
2023/09/15 06:25:17;;;;;;;7.95;4.72;;;;;;;23.27;84.90;101076.50;4847443;29;20068;-84
2023/09/15 06:27:48;;;;;;;5.22;4.30;;;;;;;23.38;84.06;101076.84;4848393;29;20079;-84
2023/09/15 06:30:16;;;;;;;6.78;4.15;;;;;;;23.17;84.42;101091.78;4833268;29;20053;-84
2023/09/15 06:32:45;;;;;;;8.23;4.57;;;;;;;23.30;84.47;101093.34;4848153;29;20053;-84
2023/09/15 06:35:15;;;;;;;7.90;4.80;;;;;;;23.31;84.32;101086.63;4847573;29;20079;-84
2023/09/15 06:37:44;;;;;;;6.50;4.32;;;;;;;23.52;83.02;101085.63;4848194;29;20057;-84
2023/09/15 06:40:13;;;;;;;6.38;4.28;;;;;;;23.62;81.04;101090.66;4848231;29;20065;-83
2023/09/15 06:42:42;;;;;;;9.15;4.43;;;;;;;23.70;80.79;101102.06;4848098;29;20053;-83
2023/09/15 06:45:11;;;;;;;9.10;4.50;;;;;;;23.66;81.60;101101.13;4848343;29;20048;-83
2023/09/15 06:47:40;;;;;;;5.22;4.03;;;;;;;23.60;82.18;101090.22;4833494;29;20053;-83
2023/09/15 06:50:09;;;;;;;6.70;4.07;;;;;;;23.70;82.17;101088.09;4848289;29;20063;-83
2023/09/15 06:52:37;;;;;;;6.40;4.40;;;;;;;23.62;82.81;101087.06;4847884;29;20067;-83
2023/09/15 06:55:06;;;;;;;5.82;3.95;;;;;;;23.60;82.62;101084.63;4847961;29;20056;-83
2023/09/15 06:57:35;;;;;;;6.47;4.20;;;;;;;23.77;82.35;101085.47;4863433;29;20055;-83
2023/09/15 07:00:05;;;;;;;6.20;4.45;;;;;;;23.64;82.52;101089.53;4847663;29;20072;-83
2023/09/15 07:02:33;;;;;;;8.98;4.40;;;;;;;23.61;81.43;101080.66;4833247;29;20061;-83
2023/09/15 07:05:02;;;;;;;10.52;4.63;;;;;;;23.79;81.04;101085.91;4847949;29;20049;-83
2023/09/15 07:07:32;;;;;;;7.90;4.60;;;;;;;23.75;80.42;101077.44;4847181;29;20065;-82
2023/09/15 07:10:01;;;;;;;6.68;4.30;;;;;;;23.59;80.42;101077.44;4848125;29;20053;-83
2023/09/15 07:12:31;;;;;;;6.85;4.05;;;;;;;23.61;81.69;101077.88;4847763;29;20531;-83
2023/09/15 07:15:05;;;;;;;5.45;3.92;;;;;;;23.76;81.46;101092.25;4846210;29;20056;-84
2023/09/15 07:17:35;;;;;;;6.40;4.75;;;;;;;23.71;81.13;101092.50;4862608;29;20061;-83
2023/09/15 07:20:03;;;;;;;4.63;3.90;;;;;;;23.95;80.98;101105.50;4878995;29;20397;-84
2023/09/15 07:22:32;;;;;;;5.70;4.05;;;;;;;23.95;81.72;101104.69;4879009;29;20053;-84
2023/09/15 07:25:00;;;;;;;5.57;4.00;;;;;;;24.06;80.85;101111.38;4878951;29;20041;-84
2023/09/15 07:27:29;;;;;;;6.45;4.28;;;;;;;24.12;79.92;101098.78;4861720;29;20405;-84
2023/09/15 07:29:57;;;;;;;4.80;3.92;;;;;;;24.23;78.98;101092.63;4878824;29;20045;-84
2023/09/15 07:32:26;;;;;;;4.82;4.20;;;;;;;24.20;81.00;101112.94;4878744;29;20049;-84
2023/09/15 07:34:54;;;;;;;5.70;3.97;;;;;;;24.32;79.40;101101.66;4878768;29;20071;-84
2023/09/15 07:37:23;;;;;;;4.70;3.95;;;;;;;24.41;78.30;101096.69;4878756;29;20053;-83
2023/09/15 07:39:51;;;;;;;5.20;4.38;;;;;;;24.66;77.10;101104.84;4877739;29;20067;-85
2023/09/15 07:42:19;;;;;;;5.00;3.92;;;;;;;24.74;76.43;101096.63;4878802;29;20049;-85
2023/09/15 07:44:48;;;;;;;5.63;4.10;;;;;;;24.98;75.87;101097.56;4878753;29;20056;-84
2023/09/15 07:47:16;;;;;;;5.28;4.10;;;;;;;25.03;75.98;101098.06;4878980;29;20057;-85
2023/09/15 07:49:45;;;;;;;4.72;3.90;;;;;;;25.14;73.58;101109.50;4878998;29;20049;-84
2023/09/15 07:52:14;;;;;;;5.15;4.07;;;;;;;25.02;73.90;101106.84;4878279;29;20060;-84
2023/09/15 07:54:45;;;;;;;4.93;3.28;;;;;;;25.05;69.88;101104.13;4861890;29;20061;-84
2023/09/15 07:57:14;;;;;;;3.90;3.50;;;;;;;25.08;69.06;101100.59;4878761;29;20064;-83
2023/09/15 07:59:42;;;;;;;6.80;3.45;;;;;;;25.03;68.33;101105.69;4879137;29;20060;-82
2023/09/15 08:02:11;;;;;;;4.65;3.08;;;;;;;25.26;68.41;101104.94;4878882;29;20048;-83
2023/09/15 08:04:41;;;;;;;3.40;3.10;;;;;;;25.36;68.34;101107.97;4879204;29;20045;-82
2023/09/15 08:07:10;;;;;;;3.53;3.20;;;;;;;25.45;67.49;101099.31;4878907;29;20061;-83
2023/09/15 08:09:38;;;;;;;3.78;2.80;;;;;;;25.40;65.40;101110.81;4879197;29;20049;-83
2023/09/15 08:12:07;;;;;;;3.67;2.53;;;;;;;25.36;67.97;101121.13;4878861;29;20060;-84
2023/09/15 08:14:36;;;;;;;2.95;2.58;;;;;;;25.52;64.54;101114.66;4879105;29;20049;-83
2023/09/15 08:17:04;;;;;;;4.07;2.55;;;;;;;25.38;65.73;101127.19;4879177;29;20057;-83
2023/09/15 08:19:39;;;;;;;;;;;;;;;25.34;64.62;101121.53;4879660;29;20072;-83
2023/09/15 08:22:07;;;;;;;2.90;2.60;;;;;;;25.34;62.97;101127.13;4878530;29;19928;-82
2023/09/15 08:24:37;;;;;;;2.92;2.55;;;;;;;25.21;64.71;101120.84;4861761;29;20381;-81
2023/09/15 08:27:05;;;;;;;3.83;2.45;;;;;;;25.11;65.52;101138.22;4877998;29;20053;-83
2023/09/15 08:29:37;;;;;;;2.50;2.30;;;;;;;25.00;65.47;101140.81;4878245;29;20056;-83
2023/09/15 08:32:06;;;;;;;3.20;2.90;;;;;;;24.87;66.48;101148.50;4878068;29;20076;-82
2023/09/15 08:34:34;;;;;;;3.40;2.60;;;;;;;24.73;64.72;101146.16;4878017;29;20049;-81
2023/09/15 08:37:03;;;;;;;3.85;3.45;;;;;;;24.84;66.48;101149.25;4878026;29;20053;-83
2023/09/15 08:39:31;;;;;;;5.63;2.55;;;;;;;24.86;67.11;101158.09;4861464;29;20049;-82
2023/09/15 08:42:03;;;;;;;3.20;2.92;;;;;;;24.75;65.71;101162.59;4860718;29;20064;-82
2023/09/15 08:44:32;;;;;;;3.25;2.60;;;;;;;24.77;66.45;101168.63;4878111;29;20072;-83
2023/09/15 08:47:01;;;;;;;3.42;2.72;;;;;;;24.63;66.38;101164.31;4878105;29;20049;-83
2023/09/15 08:49:30;;;;;;;3.47;2.90;;;;;;;24.73;66.46;101171.34;4878217;29;20045;-82
2023/09/15 08:51:59;;;;;;;3.60;2.60;;;;;;;24.64;66.21;101165.16;4876823;29;20060;-82
2023/09/15 08:54:28;;;;;;;3.20;2.72;;;;;;;24.50;66.09;101182.38;4872799;29;20060;-82
2023/09/15 08:56:56;;;;;;;2.85;2.55;;;;;;;24.44;66.43;101181.88;4878151;29;20045;-82
2023/09/15 08:59:25;;;;;;;3.20;2.50;;;;;;;24.54;66.62;101188.91;4877280;29;20061;-82
2023/09/15 09:01:54;;;;;;;2.95;2.65;;;;;;;24.37;67.06;101184.47;4878494;29;20049;-82
2023/09/15 09:04:22;;;;;;;4.38;2.70;;;;;;;24.33;67.26;101195.56;4881890;29;20052;-81
2023/09/15 09:06:52;;;;;;;3.38;2.60;;;;;;;24.28;67.47;101174.28;4881645;29;20053;-83
2023/09/15 09:09:23;;;;;;;3.08;2.78;;;;;;;24.19;67.96;101186.81;4881923;29;20060;-82
2023/09/15 09:11:52;;;;;;;3.63;2.63;;;;;;;24.25;68.52;101188.97;4881758;29;20056;-83
2023/09/15 09:14:22;;;;;;;3.55;2.60;;;;;;;24.22;69.59;101192.50;4864732;29;20057;-82
2023/09/15 09:16:53;;;;;;;3.58;2.80;;;;;;;24.11;71.00;101186.63;4881397;29;20041;-81
2023/09/15 09:19:23;;;;;;;3.58;3.17;;;;;;;24.03;72.99;101193.16;4881002;29;20048;-81
2023/09/15 09:22:01;;;;;;;3.90;3.42;;;;;;;24.00;74.37;101197.47;4881722;29;20053;-81
2023/09/15 09:24:30;;;;;;;4.35;3.88;;;;;;;23.71;76.21;101196.66;4881208;29;20049;-81
2023/09/15 09:26:58;;;;;;;5.53;3.20;;;;;;;23.69;77.10;101203.78;4881068;29;20061;-82
2023/09/15 09:29:28;;;;;;;4.50;4.00;;;;;;;23.65;77.17;101205.69;4881795;29;20049;-81
2023/09/15 09:31:57;;;;;;;4.68;3.78;;;;;;;23.71;77.17;101195.88;4881087;29;20416;-81
2023/09/15 09:34:25;;;;;;;4.85;3.85;;;;;;;23.81;77.01;101186.16;4880951;29;20393;-81
2023/09/15 09:37:13;;;;;;;5.25;4.20;;;;;;;23.67;77.18;101173.44;4880949;29;20068;-81
2023/09/15 09:39:42;;;;;;;4.30;3.65;;;;;;;23.65;78.67;101175.75;4880855;29;20041;-81
2023/09/15 09:42:11;;;;;;;4.25;3.67;;;;;;;23.80;77.29;101154.59;4879668;29;20041;-83
2023/09/15 09:44:40;;;;;;;3.72;3.40;;;;;;;23.98;76.67;101165.47;4880759;29;20053;-83
2023/09/15 09:47:09;;;;;;;7.03;3.60;;;;;;;23.98;77.35;101171.03;4880737;29;20044;-84
2023/09/15 09:49:40;;;;;;;4.25;3.55;;;;;;;23.98;78.00;101157.06;4880470;29;20072;-84
2023/09/15 09:52:09;;;;;;;5.30;4.20;;;;;;;23.76;79.46;101170.47;4880470;29;20049;-85
2023/09/15 09:54:37;;;;;;;4.28;3.53;;;;;;;24.00;79.09;101155.53;4880647;29;20045;-84
2023/09/15 09:57:06;;;;;;;4.18;3.70;;;;;;;23.79;80.03;101147.41;4880418;29;20057;-82
2023/09/15 09:59:38;;;;;;;5.78;3.75;;;;;;;23.96;78.66;101151.03;4880548;29;20049;-83
2023/09/15 10:02:06;;;;;;;4.50;3.78;;;;;;;23.84;78.24;101154.69;4880378;29;20065;-82
2023/09/15 10:04:35;;;;;;;4.28;3.72;;;;;;;23.95;77.31;101146.63;4863421;29;20057;-83
2023/09/15 10:07:04;;;;;;;4.60;3.75;;;;;;;23.86;76.88;101150.38;4862076;29;20052;-81
2023/09/15 10:09:33;;;;;;;4.47;3.78;;;;;;;24.12;75.68;101149.09;4879864;29;20068;-83
2023/09/15 10:12:02;;;;;;;4.80;3.55;;;;;;;24.03;76.57;101142.84;4880598;29;20053;-82
2023/09/15 10:14:31;;;;;;;4.85;4.15;;;;;;;24.26;75.81;101147.84;4879483;29;20057;-84
2023/09/15 10:17:00;;;;;;;4.65;3.25;;;;;;;24.42;73.17;101129.06;4880312;29;20164;-82
2023/09/15 10:19:29;;;;;;;4.70;3.60;;;;;;;24.73;73.12;101139.78;4880606;29;20080;-84
2023/09/15 10:22:00;;;;;;;5.47;3.90;;;;;;;24.80;71.69;101134.34;4880636;29;20076;-82
2023/09/15 10:24:31;;;;;;;3.90;3.53;;;;;;;25.03;71.50;101140.06;4880609;29;20066;-84
2023/09/15 10:27:00;;;;;;;5.35;3.30;;;;;;;25.14;70.41;101133.91;4880730;29;20053;-83
2023/09/15 10:29:31;;;;;;;4.30;3.38;;;;;;;25.31;70.08;101141.88;4880589;29;20045;-84
2023/09/15 10:32:04;;;;;;;5.18;3.58;;;;;;;25.07;68.64;101129.75;4880595;29;20056;-82
2023/09/15 10:34:33;;;;;;;4.75;3.55;;;;;;;25.27;69.21;101131.78;4863220;29;20060;-80
2023/09/15 10:37:02;;;;;;;3.58;3.22;;;;;;;25.23;68.52;101126.09;4880440;29;20053;-83
2023/09/15 10:39:40;;;;;;;6.35;3.17;;;;;;;25.38;68.63;101123.59;4863601;29;20073;-83
2023/09/15 10:42:10;;;;;;;7.43;3.17;;;;;;;25.39;68.86;101126.03;4879760;29;20064;-83
2023/09/15 10:44:40;;;;;;;3.70;3.35;;;;;;;25.45;68.03;101115.31;4862712;29;20514;-83
2023/09/15 10:47:16;;;;;;;5.13;3.70;;;;;;;25.40;67.18;101124.84;4879561;29;20389;-84
2023/09/15 10:49:51;;;;;;;4.82;3.20;;;;;;;25.27;66.59;101114.97;4879501;29;20052;-81
2023/09/15 10:52:36;;;;;;;3.95;3.55;;;;;;;25.21;65.06;101123.66;4879306;29;20075;-81
2023/09/15 10:55:05;;;;;;;3.53;3.20;;;;;;;25.35;66.51;101105.53;4879210;29;20393;-84
2023/09/15 10:57:36;;;;;;;4.43;3.00;;;;;;;25.50;65.17;101110.22;4879269;29;20045;-82
2023/09/15 11:00:08;;;;;;;2.95;2.65;;;;;;;25.62;63.93;101100.06;4862558;29;20057;-81
2023/09/15 11:02:39;;;;;;;3.45;3.15;;;;;;;25.77;64.25;101101.94;4879257;29;20052;-82
2023/09/15 11:05:08;;;;;;;3.08;2.83;;;;;;;25.86;62.36;101084.09;4879268;29;20069;-83
2023/09/15 11:07:37;;;;;;;3.35;2.60;;;;;;;26.06;62.87;101098.03;4879060;29;20072;-81
2023/09/15 11:10:06;;;;;;;3.90;2.63;;;;;;;26.12;61.93;101085.31;4879199;29;20080;-83
2023/09/15 11:12:35;;;;;;;3.17;2.85;;;;;;;26.32;62.39;101102.06;4862363;29;20056;-84
2023/09/15 11:15:04;;;;;;;3.80;2.63;;;;;;;26.45;61.46;101097.91;4879116;29;20056;-82
2023/09/15 11:17:33;;;;;;;2.72;2.53;;;;;;;26.49;59.89;101101.53;4879393;29;20050;-82
2023/09/15 11:20:05;;;;;;;4.15;3.08;;;;;;;26.64;59.77;101098.97;4879234;29;20045;-83
2023/09/15 11:22:38;;;;;;;3.78;2.38;;;;;;;26.61;59.11;101089.31;4879314;29;20052;-84
2023/09/15 11:25:09;;;;;;;3.80;3.20;;;;;;;26.67;59.18;101092.59;4879026;29;20049;-82
2023/09/15 11:27:50;;;;;;;3.10;2.80;;;;;;;26.95;57.61;101089.41;4879087;29;20056;-84
2023/09/15 11:30:18;;;;;;;3.78;3.00;;;;;;;27.17;57.86;101098.09;4879483;29;20056;-83
2023/09/15 11:32:47;;;;;;;2.70;2.50;;;;;;;26.87;54.91;101093.25;4879288;29;20401;-83
2023/09/15 11:35:18;;;;;;;3.05;2.85;;;;;;;26.87;58.55;101092.47;4879207;29;20072;-84